Aktuální počasí v Česku a ve světě - METAR

Seznam meteostanic umístěných nejčasteji na letišti v ČR a ve světě

Vyhledat místa podle abecedy:
A B C D E F G H I J K L M N O P Q R S T U V W X Y Z

Filtrovat:

ID stanice:
a/nebo
Název místa (fulltext):
 
Místo (ID)Naposledy načteno 
Liberec (Liberec) 22.04.2021 00:00 UTC Zobrazit data
Místo: Liberec
Teplota: 7 °C (pocitová: 3.1 °C)
Vítr: 2 m/s z(e) 310°
Počasí: zataženo
Dohlednost: 30 km
Zákl. oblačnosti: 1/8 1020 m;8/8 1500 m
Vlhkost: 71%
Luká (Luka) 22.04.2021 00:00 UTC Zobrazit data
Místo: Luká
Teplota: 7 °C (pocitová: 1.2 °C)
Vítr: 4 m/s z(e) 290°
Počasí: oblačno
Dohlednost: 35 km
Zákl. oblačnosti: 3/8 2700 m
Vlhkost: 76%
Lysá Hora (Lysa Hora) 22.04.2021 00:00 UTC Zobrazit data
Místo: Lysá Hora
Teplota: 3 °C (pocitová: -5.5 °C)
Vítr: 6 m/s z(e) 270°
Počasí: zataženo
Dohlednost: 17 km
Zákl. oblačnosti: 4/8 840 m;7/8 1470 m
Vlhkost: 93%
L'viv (UKLL) 13.12.2012 15:00 UTC  
La Palma (GCLA) 22.04.2021 00:00 UTC Zobrazit METAR
GCLA 220000Z AUTO 33005KT 290V010 9999 BKN028 19/14 Q1018
La Paz (SLLP) 22.04.2021 00:00 UTC Zobrazit METAR
SLLP 220000Z 08008KT 9999 FEW015 SCT200 07/01 Q1036
Laayoune (GMML) 22.04.2021 00:00 UTC Zobrazit METAR
GMML 220000Z 02009KT 9999 FEW020 SCT200 17/13 Q1016 NOSIG
Larnaca (LCLK) 22.04.2021 00:00 UTC Zobrazit METAR
LCLK 220000Z 32004KT CAVOK 13/09 Q1017 NOSIG
Leipzig-Halle (EDDP) 21.04.2021 23:50 UTC Zobrazit METAR
EDDP 212350Z 30006KT CAVOK 04/M01 Q1018 NOSIG
Libreville (FOOL) 22.04.2021 00:00 UTC Zobrazit METAR
FOOL 220000Z VRB02KT 9999 FEW010 25/24 Q1010 NOSIG
Liege (EBLG) 21.04.2021 23:50 UTC Zobrazit METAR
EBLG 212350Z 02006KT CAVOK 04/01 Q1022 NOSIG
Liepaja (EVLA) 21.04.2021 20:50 UTC Zobrazit METAR
EVLA 212050Z AUTO 24017KT 9999 FEW051/// 06/03 Q1004
Lille (LFQQ) 22.04.2021 00:00 UTC Zobrazit METAR
LFQQ 220000Z AUTO 03009KT CAVOK 06/01 Q1023 NOSIG
Lilongwe (FWLI) 04.06.2013 21:00 UTC Zobrazit METAR
FWLI 042100Z 05003KT CAVOK 14/11 Q1023 NOSIG
Lima - Callao (SPIM) 07.06.2019 22:00 UTC Zobrazit METAR
SPIM 072200Z /////KT 9999 BKN035 18/15 Q1015 RMK PP000
Limnos (LGLM) 21.04.2021 23:50 UTC Zobrazit METAR
LGLM 212350Z 00000KT CAVOK 08/07 Q1020
Linz (LOWL) 21.04.2021 23:50 UTC Zobrazit METAR
LOWL 212350Z 25004KT 9999 SCT080 07/04 Q1017 NOSIG
Lisbon (LPPT) 22.04.2021 00:00 UTC Zobrazit METAR
LPPT 220000Z 28006KT 9999 FEW012 15/13 Q1012
Liverpool (EGGP) 21.04.2021 20:50 UTC Zobrazit METAR
EGGP 212050Z AUTO 09010KT 9999 OVC040/// 11/03 Q1025
Ljubljana (LJLJ) 22.04.2021 00:00 UTC Zobrazit METAR
LJLJ 220000Z 12001KT CAVOK 03/02 Q1018 NOSIG
Lome (DXXX) 22.04.2021 00:00 UTC Zobrazit METAR
DXXX 220000Z 22008KT 9999 FEW013 29/25 Q1011 NOSIG
London (EGLL) 21.04.2021 17:50 UTC Zobrazit METAR
EGLL 211750Z AUTO 11011KT 9999 BKN045 11/03 Q1022
Luanda (FNLU) 21.04.2021 10:00 UTC Zobrazit METAR
FNLU 211000Z 24004KT 9999 FEW020 30/24 Q1009
Lulea (ESPA) 21.04.2021 23:50 UTC Zobrazit METAR
ESPA 212350Z AUTO 34010KT 9999 OVC088/// 03/00 Q1001
Lusaka (FLLS) 13.01.2014 07:00 UTC Zobrazit METAR
FLLS 130700Z 36009KT CAVOK 25/20 Q1019
Luxembourg Airport (ELLX) 21.04.2021 22:50 UTC Zobrazit METAR
ELLX 212250Z 03014KT CAVOK 08/04 Q1019 NOSIG
Lyon (LFLL) 22.04.2021 00:30 UTC Zobrazit METAR
LFLL 220030Z 19002KT CAVOK 10/08 Q1018 NOSIG
Reklama

Reklama


Newslettter

Počasí na Váš email

Emaily jsou bez reklamy a bez spamu



Odhlásit newsletter




Další české internetové stránky (nejen) o počasí najdete v katalogu TOPlist - weby o počasí nebo vyhledejte na internetu, co jste tu na Počasí Slunečno Slunečnu zatím nenašli:
Přidat mezzi oblíbené stránkyPřidat Slunečno.cz do oblíbených | Nastavit jako HOMEPAGENastavit Slunečno.cz jako HOMEPAGE

Posunout stránku nahoru Posunout stránku nahoru Posunout stránku nahoru
Reklama